createdAt,value
2018-07-03T00:01:54.674Z,70.90
2018-07-03T00:03:56.753Z,70.90
2018-07-03T00:05:58.846Z,71.40
2018-07-03T00:08:01.258Z,72.30
2018-07-03T00:10:03.749Z,74.30
2018-07-03T00:12:05.846Z,75.70
2018-07-03T00:14:07.965Z,76.10
2018-07-03T00:16:14.657Z,77.10
2018-07-03T00:18:16.739Z,77.20
2018-07-03T00:20:18.870Z,76.20
2018-07-03T00:22:21.579Z,75.30
2018-07-03T00:24:23.674Z,74.60
2018-07-03T00:26:25.758Z,74.30
2018-07-03T00:28:27.845Z,73.90
2018-07-03T00:30:29.954Z,73.40
2018-07-03T00:32:32.060Z,73.10
2018-07-03T00:34:34.134Z,73.50
2018-07-03T00:36:36.235Z,74.30
2018-07-03T00:38:38.329Z,73.90
2018-07-03T00:40:40.410Z,73.90
2018-07-03T00:42:42.497Z,74.10
2018-07-03T00:44:44.581Z,74.70
2018-07-03T00:46:46.670Z,75.80
2018-07-03T00:48:48.761Z,76.60
2018-07-03T00:50:50.858Z,75.60
2018-07-03T00:52:52.949Z,76.30
2018-07-03T00:54:55.035Z,76.60
2018-07-03T00:56:57.153Z,77.00
2018-07-03T00:58:59.242Z,76.90
2018-07-03T01:01:01.343Z,75.80
2018-07-03T01:03:04.086Z,75.40
2018-07-03T01:05:06.201Z,75.10
2018-07-03T01:07:08.287Z,75.20
2018-07-03T01:09:10.435Z,75.20
2018-07-03T01:11:12.541Z,75.40
2018-07-03T01:13:14.658Z,75.20
2018-07-03T01:15:16.732Z,75.60
2018-07-03T01:17:18.818Z,75.50
2018-07-03T01:19:20.931Z,75.50
2018-07-03T01:21:23.036Z,75.60
2018-07-03T01:23:25.153Z,75.50
2018-07-03T01:25:27.251Z,75.50
2018-07-03T01:27:29.322Z,75.60
2018-07-03T01:29:31.390Z,75.50
2018-07-03T01:31:33.508Z,75.50
2018-07-03T01:33:35.598Z,75.50
2018-07-03T01:35:37.676Z,75.50
2018-07-03T01:37:39.748Z,75.50
2018-07-03T01:39:41.844Z,75.80
2018-07-03T01:41:43.921Z,75.90
2018-07-03T01:43:46.827Z,75.90
2018-07-03T01:45:48.906Z,76.00
2018-07-03T01:47:50.958Z,75.70
2018-07-03T01:49:53.050Z,75.50
2018-07-03T01:51:55.185Z,75.60
2018-07-03T01:53:57.259Z,75.50
2018-07-03T01:55:59.409Z,76.10
2018-07-03T01:58:01.488Z,75.90
2018-07-03T02:00:04.348Z,76.50
2018-07-03T02:02:06.454Z,76.60
2018-07-03T02:04:08.550Z,76.60
2018-07-03T02:06:10.630Z,76.60
2018-07-03T02:08:12.703Z,76.50
2018-07-03T02:10:14.810Z,76.70
2018-07-03T02:12:16.882Z,76.70
2018-07-03T02:14:18.970Z,76.80
2018-07-03T02:16:21.300Z,76.90
2018-07-03T02:18:23.389Z,77.10
2018-07-03T02:20:25.460Z,77.60
2018-07-03T02:22:27.675Z,77.70
2018-07-03T02:24:29.797Z,77.60
2018-07-03T02:26:31.909Z,77.50
2018-07-03T02:28:34.001Z,77.70
2018-07-03T02:30:36.077Z,77.80
2018-07-03T02:32:38.158Z,77.80
2018-07-03T02:34:40.278Z,77.90
2018-07-03T02:36:42.370Z,77.80
2018-07-03T02:38:44.470Z,77.80
2018-07-03T02:40:46.571Z,77.60
2018-07-03T02:42:48.666Z,77.90
2018-07-03T02:44:50.750Z,78.00
2018-07-03T02:46:52.877Z,77.60
2018-07-03T02:48:54.992Z,77.90
2018-07-03T02:50:57.065Z,77.90
2018-07-03T02:52:59.488Z,78.00
2018-07-03T02:55:01.554Z,78.10
2018-07-03T02:57:03.702Z,77.90
2018-07-03T02:59:05.789Z,78.10
2018-07-03T03:01:07.875Z,78.50
2018-07-03T03:03:10.027Z,78.50
2018-07-03T03:07:14.398Z,78.40
2018-07-03T03:09:16.483Z,78.70
2018-07-03T03:11:21.954Z,78.80
2018-07-03T03:13:24.023Z,78.60
2018-07-03T03:17:28.253Z,78.60
2018-07-03T03:19:30.329Z,78.40
2018-07-03T03:21:32.422Z,78.20
2018-07-03T03:23:34.537Z,78.10
2018-07-03T03:25:36.646Z,78.10
2018-07-03T03:27:38.718Z,78.30
2018-07-03T03:29:40.794Z,78.40
2018-07-03T03:31:42.874Z,79.40
2018-07-03T03:33:45.038Z,79.80
2018-07-03T03:35:47.127Z,79.30
2018-07-03T03:37:49.193Z,79.20
2018-07-03T03:39:51.281Z,78.80
2018-07-03T03:41:53.373Z,78.50
2018-07-03T03:43:55.433Z,78.70
2018-07-03T03:45:57.540Z,78.80
2018-07-03T03:47:59.633Z,78.90
2018-07-03T03:50:01.786Z,79.00
2018-07-03T03:52:03.904Z,78.80
2018-07-03T03:54:06.020Z,78.90
2018-07-03T03:56:08.137Z,78.90
2018-07-03T03:58:10.231Z,79.10
2018-07-03T04:00:12.322Z,79.00
2018-07-03T04:02:14.534Z,79.00
2018-07-03T04:04:16.566Z,79.10
2018-07-03T04:06:18.665Z,78.50
2018-07-03T04:08:20.770Z,79.30
2018-07-03T04:10:22.861Z,79.40
2018-07-03T04:12:24.958Z,79.50
2018-07-03T04:14:27.069Z,79.30
2018-07-03T04:16:29.146Z,79.40
2018-07-03T04:18:33.965Z,79.50
2018-07-03T04:20:36.078Z,79.60
2018-07-03T04:22:38.161Z,79.50
2018-07-03T04:24:40.262Z,80.00
2018-07-03T04:26:42.333Z,80.00
2018-07-03T04:28:44.426Z,80.10
2018-07-03T04:30:46.617Z,80.50
2018-07-03T04:32:48.682Z,80.80
2018-07-03T04:34:50.774Z,81.10
2018-07-03T04:36:53.253Z,80.40
2018-07-03T04:38:55.321Z,81.00
2018-07-03T04:40:57.393Z,80.60
2018-07-03T04:42:59.472Z,80.50
2018-07-03T04:45:01.610Z,80.60
2018-07-03T04:47:03.781Z,80.90
2018-07-03T04:49:05.881Z,81.30
2018-07-03T04:51:07.982Z,81.10
2018-07-03T04:53:10.080Z,81.50
2018-07-03T04:57:14.346Z,81.10
2018-07-03T04:59:16.421Z,80.90
2018-07-03T05:01:18.542Z,81.00
2018-07-03T05:03:20.621Z,80.70
2018-07-03T05:05:22.732Z,80.30
2018-07-03T05:07:24.813Z,80.60
2018-07-03T05:09:26.929Z,81.00
2018-07-03T05:11:29.053Z,81.00
2018-07-03T05:13:31.137Z,81.10
2018-07-03T05:15:33.227Z,81.10
2018-07-03T05:17:35.359Z,80.70
2018-07-03T05:19:37.434Z,79.90
2018-07-03T05:21:39.531Z,79.40
2018-07-03T05:23:41.668Z,79.20
2018-07-03T05:25:43.786Z,79.50
2018-07-03T05:27:45.901Z,79.40
2018-07-03T05:29:48.066Z,79.50
2018-07-03T05:31:50.299Z,79.30
2018-07-03T05:33:52.595Z,78.90
2018-07-03T05:35:54.921Z,78.60
2018-07-03T05:37:57.023Z,78.60
2018-07-03T05:39:59.474Z,78.30
2018-07-03T05:42:01.606Z,78.10
2018-07-03T05:44:03.750Z,78.60
2018-07-03T05:46:05.947Z,78.30
2018-07-03T05:48:08.221Z,78.30
2018-07-03T05:50:10.374Z,77.70
2018-07-03T05:52:12.597Z,77.80
2018-07-03T05:54:14.750Z,78.00
2018-07-03T05:56:16.896Z,77.80
2018-07-03T05:58:19.114Z,77.60
2018-07-03T06:00:21.546Z,77.00
2018-07-03T06:02:23.712Z,77.20
2018-07-03T06:04:25.998Z,76.80
2018-07-03T06:06:28.387Z,75.90
2018-07-03T06:08:30.588Z,76.40
2018-07-03T06:10:32.821Z,75.80
2018-07-03T06:12:35.013Z,75.50
2018-07-03T06:14:37.277Z,76.10
2018-07-03T06:16:39.466Z,75.70
2018-07-03T06:18:41.650Z,76.00
2018-07-03T06:20:43.812Z,75.70
2018-07-03T06:22:46.002Z,75.50
2018-07-03T06:24:48.212Z,74.60
2018-07-03T06:26:50.424Z,74.20
2018-07-03T06:28:52.585Z,73.90
2018-07-03T06:30:54.787Z,73.50
2018-07-03T06:32:57.263Z,73.10
2018-07-03T06:37:01.663Z,72.90
2018-07-03T06:39:07.087Z,72.00
2018-07-03T06:41:09.239Z,72.40
2018-07-03T06:43:11.429Z,73.00
2018-07-03T06:45:13.639Z,73.10
2018-07-03T06:47:15.840Z,72.70
2018-07-03T06:49:17.996Z,71.20
2018-07-03T06:51:20.213Z,69.40
2018-07-03T06:53:22.378Z,68.90
2018-07-03T06:55:24.550Z,68.20
2018-07-03T06:57:27.186Z,69.10
2018-07-03T06:59:29.346Z,68.40
2018-07-03T07:01:31.497Z,67.60
2018-07-03T07:03:33.696Z,66.60
2018-07-03T07:05:35.874Z,66.20
2018-07-03T07:07:38.097Z,66.70
2018-07-03T07:09:40.348Z,66.40
2018-07-03T07:11:42.458Z,66.40
2018-07-03T07:13:44.661Z,65.90
2018-07-03T07:15:46.846Z,66.10
2018-07-03T07:17:49.077Z,65.70
2018-07-03T07:19:51.291Z,65.20
2018-07-03T07:21:53.464Z,65.10
2018-07-03T07:23:55.663Z,64.80
2018-07-03T07:25:57.886Z,64.60
2018-07-03T07:28:00.150Z,64.30
2018-07-03T07:30:02.366Z,64.50
2018-07-03T07:32:05.077Z,64.60
2018-07-03T07:34:07.246Z,63.50
2018-07-03T07:36:09.376Z,64.80
2018-07-03T07:38:11.545Z,65.30
2018-07-03T07:40:13.774Z,64.70
2018-07-03T07:42:15.949Z,63.90
2018-07-03T07:44:19.389Z,61.90
2018-07-03T07:46:21.562Z,61.30
2018-07-03T07:48:23.810Z,61.70
2018-07-03T07:50:26.063Z,61.70
2018-07-03T07:52:28.204Z,61.20
2018-07-03T07:54:30.382Z,59.70
2018-07-03T07:56:32.570Z,59.70
2018-07-03T07:58:34.750Z,58.70
2018-07-03T08:00:38.054Z,57.90
2018-07-03T08:02:40.746Z,58.60
2018-07-03T08:04:43.037Z,56.90
2018-07-03T08:06:45.282Z,55.60
2018-07-03T08:08:47.598Z,55.60
2018-07-03T08:10:49.844Z,54.90
2018-07-03T08:12:52.064Z,55.50
2018-07-03T08:14:54.290Z,57.00
2018-07-03T08:16:56.520Z,57.50
2018-07-03T08:18:58.822Z,54.30
2018-07-03T08:21:01.375Z,54.30
2018-07-03T08:23:03.564Z,54.40
2018-07-03T08:25:06.767Z,54.30
2018-07-03T08:27:10.247Z,54.60
2018-07-03T08:29:12.518Z,55.00
2018-07-03T08:31:15.983Z,55.40
2018-07-03T08:33:18.483Z,56.10
2018-07-03T08:35:20.775Z,55.50
2018-07-03T08:37:23.195Z,54.50
2018-07-03T08:39:25.539Z,54.40
2018-07-03T08:41:27.717Z,53.70
2018-07-03T08:43:29.982Z,53.60
2018-07-03T08:45:32.246Z,53.70
2018-07-03T08:47:34.483Z,53.80
2018-07-03T08:49:36.725Z,52.50
2018-07-03T08:51:39.003Z,53.00
2018-07-03T08:53:41.323Z,52.40
2018-07-03T08:55:43.594Z,52.00
2018-07-03T08:57:45.905Z,50.90
2018-07-03T08:59:48.173Z,50.40
2018-07-03T09:01:50.549Z,51.30
2018-07-03T09:03:52.963Z,51.40
2018-07-03T09:05:55.375Z,50.50
2018-07-03T09:07:57.618Z,50.70
2018-07-03T09:09:59.888Z,50.00
2018-07-03T09:12:02.570Z,50.00
2018-07-03T09:14:05.513Z,50.60
2018-07-03T09:16:07.800Z,50.60
2018-07-03T09:18:10.123Z,50.20
2018-07-03T09:20:12.330Z,49.20
2018-07-03T09:22:14.650Z,48.60
2018-07-03T09:24:17.185Z,48.40
2018-07-03T09:26:19.631Z,48.50
2018-07-03T09:28:21.945Z,47.60
2018-07-03T09:30:24.260Z,47.40
2018-07-03T09:32:26.806Z,47.00
2018-07-03T09:34:29.203Z,46.90
2018-07-03T09:36:31.607Z,46.20
2018-07-03T09:38:34.033Z,47.10
2018-07-03T09:40:36.665Z,46.00
2018-07-03T09:42:38.907Z,46.80
2018-07-03T09:44:41.110Z,46.10
2018-07-03T09:46:43.677Z,45.80
2018-07-03T09:48:51.429Z,45.00
2018-07-03T09:50:55.498Z,46.10
2018-07-03T09:52:57.771Z,45.20
2018-07-03T09:55:00.088Z,45.90
2018-07-03T09:57:02.267Z,46.30
2018-07-03T09:59:04.764Z,46.00
2018-07-03T10:01:12.873Z,46.30
2018-07-03T10:03:15.462Z,46.80
2018-07-03T10:05:17.867Z,46.20
2018-07-03T10:07:20.226Z,45.90
2018-07-03T10:09:22.852Z,47.30
2018-07-03T10:11:25.305Z,47.00
2018-07-03T10:13:27.829Z,47.30
2018-07-03T10:15:30.191Z,46.50
2018-07-03T10:17:32.669Z,46.20
2018-07-03T10:19:35.097Z,45.40
2018-07-03T10:21:37.652Z,43.80
2018-07-03T10:25:43.054Z,42.20
2018-07-03T10:27:45.552Z,42.30
2018-07-03T10:29:47.931Z,42.20
2018-07-03T10:31:50.328Z,42.90
2018-07-03T10:33:52.652Z,43.90
2018-07-03T10:35:55.055Z,44.20
2018-07-03T10:37:57.369Z,44.60
2018-07-03T10:39:59.713Z,45.40
2018-07-03T10:42:02.054Z,45.90
2018-07-03T10:44:04.919Z,46.70
2018-07-03T10:46:07.578Z,47.60
2018-07-03T10:48:10.013Z,48.30
2018-07-03T10:50:12.423Z,50.10
2018-07-03T10:52:15.238Z,50.70
2018-07-03T10:54:18.078Z,50.50
2018-07-03T10:58:23.183Z,49.30
2018-07-03T11:00:25.518Z,48.80
2018-07-03T11:02:27.866Z,48.70
2018-07-03T11:04:30.223Z,48.00
2018-07-03T11:06:32.697Z,48.10
2018-07-03T11:08:35.812Z,48.30
2018-07-03T11:10:38.071Z,47.40
2018-07-03T11:12:40.929Z,46.10
2018-07-03T11:14:44.177Z,43.80
2018-07-03T11:16:46.378Z,43.50
2018-07-03T11:20:50.934Z,40.20
2018-07-03T11:22:53.242Z,39.90
2018-07-03T11:24:55.510Z,38.70
2018-07-03T11:26:57.677Z,38.90
2018-07-03T11:28:59.872Z,42.60
2018-07-03T11:31:03.394Z,43.70
2018-07-03T11:33:06.715Z,44.50
2018-07-03T11:35:09.096Z,45.30
2018-07-03T11:37:11.258Z,44.90
2018-07-03T11:39:13.418Z,45.20
2018-07-03T11:41:15.592Z,46.00
2018-07-03T11:43:17.836Z,46.50
2018-07-03T11:45:19.994Z,46.90
2018-07-03T11:47:22.210Z,47.30
2018-07-03T11:49:24.406Z,47.90
2018-07-03T11:51:26.768Z,48.30
2018-07-03T11:53:29.054Z,48.50
2018-07-03T11:55:31.240Z,49.10
2018-07-03T11:57:33.588Z,49.00
2018-07-03T11:59:35.775Z,49.30
2018-07-03T12:01:38.044Z,49.00
2018-07-03T12:03:40.616Z,49.80
2018-07-03T12:05:42.933Z,49.70
2018-07-03T12:07:45.140Z,50.50
2018-07-03T12:09:47.332Z,52.00
2018-07-03T12:12:07.945Z,52.70
2018-07-03T12:14:10.334Z,52.30
2018-07-03T12:16:12.533Z,51.80
2018-07-03T12:18:20.572Z,51.70
2018-07-03T12:20:22.974Z,50.50
2018-07-03T12:22:25.402Z,50.50
2018-07-03T12:24:27.685Z,51.60
2018-07-03T12:26:30.690Z,52.00
2018-07-03T12:28:33.063Z,50.90
2018-07-03T12:30:35.287Z,49.50
2018-07-03T12:32:37.667Z,50.20
2018-07-03T12:34:40.041Z,50.00
2018-07-03T12:36:42.332Z,49.10
2018-07-03T12:38:44.606Z,48.50
2018-07-03T12:40:46.990Z,45.80
2018-07-03T12:42:49.249Z,44.90
2018-07-03T12:44:51.767Z,44.80
2018-07-03T12:46:54.199Z,45.60
2018-07-03T12:48:56.525Z,45.00
2018-07-03T12:50:58.799Z,42.50
2018-07-03T12:53:01.048Z,44.00
2018-07-03T12:55:05.599Z,44.40
2018-07-03T12:57:07.970Z,43.00
2018-07-03T12:59:10.266Z,41.60
2018-07-03T13:01:13.421Z,41.60
2018-07-03T13:03:15.609Z,40.70
2018-07-03T13:05:17.850Z,39.70
2018-07-03T13:07:20.084Z,40.00
2018-07-03T13:09:22.317Z,39.80
2018-07-03T13:11:24.634Z,39.90
2018-07-03T13:13:27.145Z,39.30
2018-07-03T13:15:29.473Z,39.50
2018-07-03T13:17:31.655Z,38.20
2018-07-03T13:19:34.143Z,38.00
2018-07-03T13:21:36.516Z,37.60
2018-07-03T13:23:38.842Z,37.10
2018-07-03T13:25:41.185Z,37.50
2018-07-03T13:27:43.560Z,37.40
2018-07-03T13:29:46.049Z,37.80
2018-07-03T13:31:48.188Z,36.70
2018-07-03T13:33:50.437Z,37.70
2018-07-03T13:35:52.799Z,38.00
2018-07-03T13:37:54.989Z,36.80
2018-07-03T13:39:57.289Z,35.30
2018-07-03T13:41:59.611Z,36.00
2018-07-03T13:44:01.855Z,36.50
2018-07-03T13:46:04.052Z,35.90
2018-07-03T13:48:06.419Z,35.40
2018-07-03T13:50:08.703Z,35.50
2018-07-03T13:52:10.883Z,36.60
2018-07-03T13:54:13.037Z,37.20
2018-07-03T13:56:15.225Z,38.30
2018-07-03T13:58:17.395Z,39.60
2018-07-03T14:00:19.620Z,39.40
2018-07-03T14:02:21.981Z,38.40
2018-07-03T14:04:24.175Z,38.40
2018-07-03T14:06:26.338Z,41.00
2018-07-03T14:08:29.643Z,40.60
2018-07-03T14:10:31.819Z,40.00
2018-07-03T14:12:34.101Z,38.90
2018-07-03T14:14:36.250Z,37.90
2018-07-03T14:16:38.412Z,36.60
2018-07-03T14:18:40.568Z,35.50
2018-07-03T14:20:42.732Z,34.70
2018-07-03T14:22:44.965Z,35.70
2018-07-03T14:24:47.112Z,34.30
2018-07-03T14:26:49.423Z,34.10
2018-07-03T14:28:52.529Z,33.60
2018-07-03T14:30:54.734Z,33.70
2018-07-03T14:32:56.909Z,34.00
2018-07-03T14:34:59.074Z,32.90
2018-07-03T14:37:01.298Z,31.40
2018-07-03T14:39:08.302Z,32.00
2018-07-03T14:41:11.250Z,33.80
2018-07-03T14:43:13.410Z,34.40
2018-07-03T14:45:15.609Z,35.00
2018-07-03T14:47:17.760Z,36.80
2018-07-03T14:49:19.903Z,39.90
2018-07-03T14:51:22.082Z,42.20
2018-07-03T14:53:24.219Z,43.60
2018-07-03T14:55:26.398Z,43.10
2018-07-03T14:57:28.595Z,44.50
2018-07-03T14:59:30.790Z,44.80
2018-07-03T15:01:32.942Z,44.70
2018-07-03T15:03:35.211Z,46.20
2018-07-03T15:05:37.348Z,47.20
2018-07-03T15:07:39.488Z,48.00
2018-07-03T15:11:44.375Z,50.70
2018-07-03T15:13:46.637Z,49.80
2018-07-03T15:15:48.802Z,49.40
2018-07-03T15:17:50.994Z,49.50
2018-07-03T15:19:54.507Z,48.30
2018-07-03T15:23:58.865Z,50.20
2018-07-03T15:26:01.039Z,51.10
2018-07-03T15:28:03.308Z,51.40
2018-07-03T15:30:05.696Z,52.10
2018-07-03T15:32:07.951Z,51.60
2018-07-03T15:34:10.390Z,51.10
2018-07-03T15:36:12.622Z,51.70
2018-07-03T15:38:14.842Z,52.30
2018-07-03T15:40:17.970Z,52.70
2018-07-03T15:42:20.097Z,52.70
2018-07-03T15:44:33.842Z,52.50
2018-07-03T15:46:35.998Z,52.50
2018-07-03T15:48:38.166Z,51.90
2018-07-03T15:50:40.368Z,52.80
2018-07-03T15:52:42.533Z,53.40
2018-07-03T15:54:44.822Z,53.60
2018-07-03T15:56:46.980Z,52.80
2018-07-03T15:58:49.297Z,52.50
2018-07-03T16:00:51.514Z,52.10
2018-07-03T16:03:05.318Z,51.50
2018-07-03T16:05:19.214Z,51.70
2018-07-03T16:07:33.043Z,52.00
2018-07-03T16:09:35.259Z,51.90
2018-07-03T16:11:38.231Z,51.80
2018-07-03T16:13:40.464Z,52.10
2018-07-03T16:15:42.658Z,52.30
2018-07-03T16:17:44.864Z,52.60
2018-07-03T16:19:52.724Z,53.30
2018-07-03T16:21:54.905Z,53.10
2018-07-03T16:23:57.110Z,53.20
2018-07-03T16:25:59.327Z,53.00
2018-07-03T16:28:01.517Z,53.10
2018-07-03T16:30:04.738Z,52.70
2018-07-03T16:32:07.207Z,52.30
2018-07-03T16:34:10.739Z,52.40
2018-07-03T16:36:12.958Z,52.50
2018-07-03T16:38:15.178Z,52.10
2018-07-03T16:40:17.373Z,52.10
2018-07-03T16:42:21.248Z,52.40
2018-07-03T16:44:24.503Z,52.50
2018-07-03T16:46:26.922Z,52.40
2018-07-03T16:48:29.327Z,52.30
2018-07-03T16:50:31.861Z,52.10
2018-07-03T16:52:34.202Z,52.30
2018-07-03T16:54:36.498Z,52.30
2018-07-03T16:56:38.730Z,52.40
2018-07-03T16:58:42.662Z,52.80
2018-07-03T17:00:46.047Z,52.10
2018-07-03T17:02:48.579Z,52.50
2018-07-03T17:04:50.874Z,52.40
2018-07-03T17:06:53.567Z,52.50
2018-07-03T17:08:56.166Z,52.70
2018-07-03T17:10:58.519Z,52.10
2018-07-03T17:13:00.779Z,52.40
2018-07-03T17:15:03.487Z,52.40
2018-07-03T17:17:05.977Z,52.10
2018-07-03T17:19:14.027Z,52.20
2018-07-03T17:21:16.724Z,52.10
2018-07-03T17:23:19.094Z,51.70
2018-07-03T17:25:21.708Z,50.70
2018-07-03T17:32:23.640Z,50.80
2018-07-03T17:34:28.087Z,51.30
2018-07-03T17:36:32.191Z,51.90
2018-07-03T17:38:45.458Z,51.50
2018-07-03T17:41:03.762Z,51.30
2018-07-03T17:44:17.808Z,51.30
2018-07-03T17:46:21.269Z,51.40
2018-07-03T17:52:30.759Z,52.20
2018-07-03T17:54:34.137Z,53.40
2018-07-03T17:56:51.399Z,54.10
2018-07-03T17:58:54.207Z,54.90
2018-07-03T18:00:56.659Z,54.80
2018-07-03T18:03:02.996Z,55.20
2018-07-03T18:05:05.703Z,55.50
2018-07-03T18:07:08.029Z,55.50
2018-07-03T18:09:11.070Z,54.80
2018-07-03T18:11:13.352Z,54.80
2018-07-03T18:13:15.530Z,54.30
2018-07-03T18:15:19.864Z,55.20
2018-07-03T18:17:22.062Z,55.90
2018-07-03T18:19:29.967Z,57.50
2018-07-03T18:21:32.214Z,58.70
2018-07-03T18:23:34.610Z,58.70
2018-07-03T18:25:36.789Z,58.90
2018-07-03T18:27:38.942Z,59.30
2018-07-03T18:29:41.121Z,59.30
2018-07-03T18:31:43.330Z,58.80
2018-07-03T18:33:45.595Z,58.70
2018-07-03T18:35:48.535Z,58.80
2018-07-03T18:37:50.810Z,59.70
2018-07-03T18:39:53.056Z,60.70
2018-07-03T18:41:55.339Z,61.60
2018-07-03T18:43:57.734Z,61.50
2018-07-03T18:46:00.046Z,61.40
2018-07-03T18:48:02.415Z,61.70
2018-07-03T18:50:04.970Z,61.90
2018-07-03T18:52:07.304Z,63.00
2018-07-03T18:54:09.768Z,62.70
2018-07-03T18:56:12.032Z,63.20
2018-07-03T18:58:14.240Z,63.50
2018-07-03T19:00:16.447Z,63.90
2018-07-03T19:02:18.629Z,64.80
2018-07-03T19:04:22.326Z,65.10
2018-07-03T19:06:24.530Z,64.80
2018-07-03T19:10:28.843Z,65.40
2018-07-03T19:12:31.009Z,66.40
2018-07-03T19:14:33.483Z,66.20
2018-07-03T19:16:35.637Z,66.30
2018-07-03T19:18:37.810Z,66.60
2018-07-03T19:20:40.008Z,66.80
2018-07-03T19:22:42.274Z,67.40
2018-07-03T19:24:44.578Z,67.60
2018-07-03T19:26:46.846Z,67.80
2018-07-03T19:28:49.212Z,67.60
2018-07-03T19:30:51.406Z,67.60
2018-07-03T19:32:54.755Z,68.00
2018-07-03T19:34:57.132Z,69.30
2018-07-03T19:36:59.322Z,69.60
2018-07-03T19:39:02.602Z,69.70
2018-07-03T19:41:05.391Z,70.20
2018-07-03T19:43:26.290Z,70.00
2018-07-03T19:45:28.475Z,70.40
2018-07-03T19:47:32.953Z,70.60
2018-07-03T19:49:35.385Z,70.90
2018-07-03T19:51:37.562Z,71.30
2018-07-03T19:53:39.802Z,72.10
2018-07-03T19:55:42.022Z,72.10
2018-07-03T19:57:45.292Z,72.30
2018-07-03T19:59:48.154Z,72.30
2018-07-03T20:01:50.477Z,72.60
2018-07-03T20:03:53.350Z,73.40
2018-07-03T20:05:55.757Z,74.20
2018-07-03T20:07:57.926Z,74.40
2018-07-03T20:10:00.087Z,74.10
2018-07-03T20:12:02.305Z,74.40
2018-07-03T20:14:05.246Z,74.20
2018-07-03T20:16:07.458Z,75.10
2018-07-03T20:18:10.695Z,74.60
2018-07-03T20:20:12.870Z,74.60
2018-07-03T20:22:15.046Z,74.40
2018-07-03T20:24:17.239Z,74.20
2018-07-03T20:26:19.403Z,75.00
2018-07-03T20:28:22.167Z,75.60
2018-07-03T20:30:24.330Z,75.40
2018-07-03T20:32:26.502Z,76.00
2018-07-03T20:34:28.627Z,76.10
2018-07-03T20:36:30.789Z,76.40
2018-07-03T20:38:33.332Z,76.30
2018-07-03T20:40:49.478Z,76.50
2018-07-03T20:44:55.374Z,77.20
2018-07-03T20:46:57.519Z,77.60
2018-07-03T20:48:59.750Z,77.70
2018-07-03T20:51:01.886Z,77.70
2018-07-03T20:53:04.214Z,77.00
2018-07-03T20:55:06.398Z,77.30
2018-07-03T20:57:08.581Z,77.80
2018-07-03T20:59:10.850Z,77.70
2018-07-03T21:01:13.002Z,78.30
2018-07-03T21:03:15.402Z,78.10
2018-07-03T21:05:17.872Z,77.80
2018-07-03T21:07:20.216Z,77.50
2018-07-03T21:09:25.494Z,77.40
2018-07-03T21:11:27.841Z,77.40
2018-07-03T21:13:30.067Z,78.10
2018-07-03T21:15:32.284Z,78.40
2018-07-03T21:17:34.445Z,78.70
2018-07-03T21:19:36.627Z,78.60
2018-07-03T21:21:39.016Z,78.30
2018-07-03T21:24:02.593Z,78.70
2018-07-03T21:26:04.854Z,78.90
2018-07-03T21:28:07.332Z,78.10
2018-07-03T21:30:09.706Z,79.50
2018-07-03T21:32:11.864Z,80.70
2018-07-03T21:34:13.962Z,80.30
2018-07-03T21:36:16.101Z,80.10
2018-07-03T21:38:18.273Z,79.90
2018-07-03T21:40:20.406Z,79.70
2018-07-03T21:42:22.866Z,79.20
2018-07-03T21:44:25.053Z,79.10
2018-07-03T21:46:27.179Z,78.80
2018-07-03T21:48:29.366Z,79.50
2018-07-03T21:50:31.583Z,80.40
2018-07-03T21:52:33.713Z,81.70
2018-07-03T21:54:35.853Z,81.30
2018-07-03T21:56:38.128Z,80.90
2018-07-03T21:58:40.278Z,80.00
2018-07-03T22:00:42.426Z,80.50
2018-07-03T22:02:44.537Z,80.80
2018-07-03T22:04:46.645Z,80.50
2018-07-03T22:06:48.725Z,80.60
2018-07-03T22:08:50.833Z,80.00
2018-07-03T22:10:52.920Z,80.10
2018-07-03T22:12:55.038Z,79.90
2018-07-03T22:14:57.109Z,80.00
2018-07-03T22:16:59.233Z,80.10
2018-07-03T22:19:01.459Z,80.40
2018-07-03T22:21:03.562Z,80.40
2018-07-03T22:23:05.656Z,80.50
2018-07-03T22:25:07.757Z,80.40
2018-07-03T22:27:09.901Z,80.60
2018-07-03T22:29:11.925Z,80.50
2018-07-03T22:31:13.997Z,80.80
2018-07-03T22:33:16.070Z,80.70
2018-07-03T22:35:18.152Z,80.60
2018-07-03T22:37:20.233Z,80.90
2018-07-03T22:39:22.453Z,80.70
2018-07-03T22:41:24.487Z,80.70
2018-07-03T22:43:26.551Z,81.00
2018-07-03T22:47:30.762Z,81.00
2018-07-03T22:49:32.840Z,81.00
2018-07-03T22:51:35.050Z,81.30
2018-07-03T22:53:37.178Z,81.20
2018-07-03T22:55:39.253Z,81.40
2018-07-03T22:57:41.310Z,81.20
2018-07-03T22:59:43.367Z,81.10
2018-07-03T23:01:45.634Z,81.00
2018-07-03T23:03:47.694Z,80.80
2018-07-03T23:05:49.759Z,81.00
2018-07-03T23:07:51.843Z,81.10
2018-07-03T23:09:54.003Z,81.20
2018-07-03T23:11:56.078Z,81.10
2018-07-03T23:13:58.141Z,81.20
2018-07-03T23:16:00.231Z,81.10
2018-07-03T23:18:02.318Z,81.10
2018-07-03T23:20:04.389Z,81.30
2018-07-03T23:22:06.469Z,81.40
2018-07-03T23:24:08.545Z,81.50
2018-07-03T23:26:10.635Z,81.70
2018-07-03T23:28:12.739Z,81.50
2018-07-03T23:30:15.125Z,81.70
2018-07-03T23:32:17.250Z,81.30
2018-07-03T23:34:19.322Z,81.10
2018-07-03T23:36:21.427Z,80.90
2018-07-03T23:38:23.553Z,80.90
2018-07-03T23:40:25.634Z,81.10
2018-07-03T23:42:27.975Z,81.40
2018-07-03T23:44:30.064Z,81.60
2018-07-03T23:46:43.869Z,81.60
2018-07-03T23:48:57.792Z,81.70
2018-07-03T23:51:12.158Z,81.60
2018-07-03T23:53:25.815Z,81.60
2018-07-03T23:55:39.445Z,81.70
2018-07-03T23:57:53.202Z,81.60
